Latest Weather Observations for Warwick

IDQ60801

Issued at 3:32 pm EST Tuesday 27 January 2015 (issued every 30 minutes, with the page automatically refreshed every 10 minutes)

About weather observations | Map of weather stations | Latest weather observations for QLD | Other Formats
Station Details ID: 041525 Name: WARWICK Lat: -28.21 Lon: 152.10 Height: 475.4 m
Data from the previous 72 hours. | See also: Recent months at Warwick
Date/Time
EST
Temp
°C
App
Temp
°C
Dew
Point
Rel
Hum
%
Delta-T
°C
Wind Press
QNH
hPa
Press
MSL
hPa
Rain
since 9 am
mm
Dir
 
Spd
km/h
Gust
km/h
Spd
kts
Gust
kts
27/03:30pm 26.7 26.4 20.3 68 4.3 SSE 22 35 12 19 1005.5 1002.8 0.0
27/03:00pm 28.1 27.3 16.2 48 7.5 NE 15 22 8 12 1005.6 1002.9 0.0
27/02:30pm 28.7 29.1 16.2 46 7.9 NE 9 17 5 9 1006.3 1003.5 0.0
27/02:00pm 28.2 27.1 16.4 48 7.5 NE 17 28 9 15 1006.8 1004.1 0.0
27/01:30pm 27.6 27.4 16.8 51 6.9 NE 13 24 7 13 1007.3 1004.6 0.0
27/01:00pm 27.7 27.9 16.7 51 7.0 ENE 11 17 6 9 1007.6 1004.9 0.0
27/12:30pm 27.6 27.0 16.7 51 6.9 NE 15 24 8 13 1008.1 1005.4 0.0
27/12:00pm 27.8 27.3 16.0 48 7.4 E 13 19 7 10 1008.7 1006.0 0.0
27/11:30am 27.5 26.2 15.7 48 7.4 ENE 17 28 9 15 1009.1 1006.4 0.0
27/11:00am 26.5 25.5 16.5 54 6.3 ENE 17 24 9 13 1009.4 1006.7 0.0
27/10:30am 26.3 25.2 16.3 54 6.3 ENE 17 24 9 13 1010.0 1007.3 0.0
27/10:00am 26.0 25.3 16.5 55 6.0 ENE 15 22 8 12 1009.8 1007.1 0.0
27/09:30am 25.6 27.1 18.8 66 4.4 ESE 9 15 5 8 1010.0 1007.3 0.0
27/09:00am 25.4 26.1 18.8 67 4.3 SE 13 20 7 11 1009.9 1007.2 1.6
27/08:30am 25.2 25.7 19.2 69 3.9 SE 15 20 8 11 1009.9 1007.2 1.6
27/08:00am 24.3 24.9 18.6 70 3.7 SE 13 20 7 11 1009.7 1007.0 1.6
27/07:30am 23.5 25.1 19.2 77 2.8 ESE 9 19 5 10 1009.5 1006.8 1.6
27/07:00am 23.0 25.0 19.1 78 2.5 SE 7 17 4 9 1009.5 1006.8 1.6
27/06:30am 22.4 24.6 19.2 82 2.1 ESE 6 11 3 6 1009.3 1006.6 1.6
27/06:00am 21.2 23.8 18.4 84 1.8 E 2 9 1 5 1009.3 1006.6 1.6
27/05:30am 20.3 21.7 18.7 90 1.0 E 9 13 5 7 1009.0 1006.3 1.6
27/05:00am 20.4 23.1 18.7 90 1.1 E 2 9 1 5 1008.6 1005.9 1.6
27/04:30am 20.5 22.6 18.9 90 1.0 E 6 9 3 5 1008.2 1005.5 1.6
27/04:00am 20.5 23.1 19.3 93 0.8 ESE 4 7 2 4 1008.0 1005.3 1.6
27/03:30am 20.5 23.3 19.6 95 0.6 ESE 4 9 2 5 1008.0 1005.3 1.4
27/03:00am 20.8 23.6 19.7 93 0.7 SE 4 9 2 5 1008.0 1005.3 1.4
27/02:30am 20.7 23.0 19.8 95 0.6 NNE 7 11 4 6 1008.5 1005.7 1.4
27/02:00am 20.6 23.1 19.8 95 0.5 SE 6 11 3 6 1008.2 1005.5 1.4
27/01:30am 20.9 22.8 19.8 93 0.7 SE 9 15 5 8 1008.7 1006.0 1.4
27/01:00am 20.9 23.1 19.7 93 0.8 SE 7 11 4 6 1008.9 1006.2 1.4
27/12:30am 21.0 22.5 19.8 93 0.8 SSE 11 17 6 9 1009.6 1006.9 1.4
27/12:00am 20.8 24.4 19.7 93 0.7 CALM 0 0 0 0 1009.9 1007.2 1.4
 
Date/Time
EST
Temp
°C
App
Temp
°C
Dew
Point
Rel
Hum
%
Delta-T
°C
Wind Press
QNH
hPa
Press
MSL
hPa
Rain
since 9 am
mm
Dir
 
Spd
km/h
Gust
km/h
Spd
kts
Gust
kts
26/11:30pm 20.8 24.4 19.7 93 0.7 CALM 0 0 0 0 1010.3 1007.6 1.4
26/11:00pm 20.8 24.3 19.6 93 0.8 CALM 0 7 0 4 1010.2 1007.5 1.4
26/10:30pm 20.8 23.6 19.6 93 0.8 ESE 4 9 2 5 1010.7 1008.0 1.4
26/10:00pm 20.8 21.9 19.6 93 0.8 SSE 13 17 7 9 1010.7 1008.0 1.4
26/09:30pm 20.7 21.2 19.3 92 0.9 SSE 15 24 8 13 1010.3 1007.6 1.4
26/09:00pm 20.7 20.6 19.5 93 0.8 SSE 19 28 10 15 1010.2 1007.5 1.4
26/08:30pm 21.2 21.6 18.9 87 1.5 SSE 15 24 8 13 1010.7 1008.0 1.4
26/08:00pm 21.5 23.0 19.0 86 1.6 S 9 13 5 7 1010.6 1007.9 1.4
26/07:30pm 21.5 23.4 18.5 83 1.9 SE 6 9 3 5 1011.0 1008.3 1.2
26/07:00pm 21.0 22.2 18.2 84 1.8 ESE 9 19 5 10 1010.2 1007.5 1.2
26/06:30pm 22.2 20.1 18.1 77 2.6 SE 26 43 14 23 1009.7 1007.0 1.2
26/06:22pm 22.9 21.5 18.7 77 2.7 SSE 24 43 13 23 1009.9 1007.2 1.2
26/06:00pm 24.2 25.8 18.3 69 3.8 SE 7 17 4 9 1009.0 1006.3 1.2
26/05:30pm 23.3 23.0 19.1 77 2.7 E 19 28 10 15 1007.8 1005.1 1.2
26/05:00pm 24.1 23.5 19.7 76 2.9 ENE 22 33 12 18 1008.1 1005.4 1.2
26/04:30pm 25.9 28.2 21.3 76 3.1 NE 11 17 6 9 1007.5 1004.8 1.2
26/04:00pm 23.2 24.8 19.2 78 2.6 NE 9 13 5 7 1006.5 1003.7 1.2
26/03:30pm 24.6 24.3 19.1 71 3.6 ENE 19 44 10 24 1007.8 1005.1 0.2
26/03:00pm 25.4 25.7 18.8 67 4.3 SE 15 24 8 13 1007.5 1004.8 0.2
26/02:30pm 26.4 25.6 18.4 61 5.2 SE 20 41 11 22 1006.5 1003.7 0.0
26/02:27pm 26.9 26.6 19.5 64 4.9 SE 20 41 11 22 1006.6 1003.8 0.0
26/02:00pm 31.9 31.9 18.2 44 9.0 ESE 15 24 8 13 1006.3 1003.5 0.0
26/01:30pm 32.1 30.1 18.3 44 9.1 NE 26 33 14 18 1006.5 1003.7 0.0
26/01:00pm 31.8 31.2 20.6 51 7.6 NE 24 32 13 17 1006.9 1004.2 0.0
26/12:30pm 29.6 29.5 18.7 52 7.2 E 17 33 9 18 1007.4 1004.7 0.0
26/12:00pm 31.6 33.8 21.1 53 7.2 SSE 11 19 6 10 1007.5 1004.8 0.0
26/11:30am 31.8 34.1 21.3 53 7.2 SE 11 24 6 13 1008.4 1005.6 0.0
26/11:00am 31.6 33.8 21.2 54 7.1 ESE 11 22 6 12 1008.7 1006.0 0.0
26/10:30am 30.1 32.3 20.3 55 6.6 SE 9 17 5 9 1009.0 1006.3 0.0
26/10:00am 30.0 32.9 20.7 57 6.3 NE 6 9 3 5 1009.0 1006.3 0.0
26/09:30am 28.9 32.1 21.2 63 5.2 ENE 6 9 3 5 1009.3 1006.6 0.0
26/09:00am 28.1 31.0 20.7 64 5.0 ESE 6 9 3 5 1009.4 1006.7 0.0
26/08:30am 26.8 29.5 20.2 67 4.4 S 6 11 3 6 1009.5 1006.8 0.0
26/08:00am 26.1 29.7 20.6 71 3.7 SSE 2 7 1 4 1009.6 1006.9 0.0
26/07:30am 24.3 27.7 20.1 77 2.8 SE 2 7 1 4 1009.5 1006.8 0.0
26/07:00am 23.1 25.3 19.7 81 2.2 ENE 7 11 4 6 1009.4 1006.7 0.0
26/06:30am 21.8 24.2 20.0 89 1.2 NE 7 9 4 5 1009.3 1006.6 0.0
26/06:00am 21.1 24.5 19.4 90 1.1 CALM 0 0 0 0 1009.2 1006.5 0.0
26/05:30am 20.2 23.5 19.0 93 0.8 CALM 0 0 0 0 1008.8 1006.1 0.0
26/05:00am 20.1 23.4 19.2 95 0.6 CALM 0 0 0 0 1008.4 1005.6 0.0
26/04:30am 20.4 23.6 18.8 90 1.0 CALM 0 0 0 0 1008.0 1005.3 0.0
26/04:00am 20.8 24.2 19.3 91 1.0 CALM 0 0 0 0 1007.9 1005.2 0.0
26/03:30am 21.1 24.4 19.2 89 1.2 CALM 0 0 0 0 1007.8 1005.1 0.0
26/03:00am 21.2 23.3 19.0 87 1.4 N 6 7 3 4 1007.7 1005.0 0.0
26/02:30am 21.3 24.4 19.5 89 1.2 NNE 2 7 1 4 1007.7 1005.0 0.0
26/02:00am 21.3 24.4 19.6 90 1.1 WNW 2 7 1 4 1007.6 1004.9 0.0
26/01:30am 21.5 25.1 19.8 90 1.1 CALM 0 0 0 0 1007.4 1004.7 0.0
26/01:00am 21.6 25.3 19.9 90 1.1 CALM 0 6 0 3 1007.6 1004.9 0.0
26/12:30am 21.3 23.8 19.9 92 0.9 WSW 6 7 3 4 1008.0 1005.3 0.0
26/12:00am 22.1 24.1 20.0 88 1.4 NNE 9 11 5 6 1008.5 1005.7 0.0
 
Date/Time
EST
Temp
°C
App
Temp
°C
Dew
Point
Rel
Hum
%
Delta-T
°C
Wind Press
QNH
hPa
Press
MSL
hPa
Rain
since 9 am
mm
Dir
 
Spd
km/h
Gust
km/h
Spd
kts
Gust
kts
25/11:30pm 22.6 26.3 20.0 85 1.7 CALM 0 7 0 4 1008.7 1006.0 0.0
25/11:00pm 22.8 25.5 20.2 85 1.7 ENE 6 11 3 6 1008.9 1006.2 0.0
25/10:30pm 23.4 26.0 20.4 83 2.0 SE 7 13 4 7 1008.9 1006.2 0.0
25/10:00pm 23.9 25.3 20.4 81 2.3 SSE 13 20 7 11 1008.6 1005.9 0.0
25/09:30pm 24.5 25.6 20.4 78 2.7 SSE 15 30 8 16 1008.5 1005.7 0.0
25/09:00pm 25.5 26.6 19.7 70 3.8 S 13 30 7 16 1008.4 1005.6 0.0
25/08:30pm 25.3 27.4 19.4 70 3.9 E 7 11 4 6 1007.5 1004.8 0.0
25/08:00pm 25.8 27.0 18.2 63 4.9 NE 9 9 5 5 1006.8 1004.1 0.0
25/07:30pm 26.5 28.9 16.9 55 6.1 CALM 0 0 0 0 1006.5 1003.7 0.0
25/07:00pm 26.8 29.6 18.0 58 5.7 CALM 0 0 0 0 1006.1 1003.3 0.0
25/06:30pm 29.9 33.4 19.6 54 6.9 CALM 0 0 0 0 1005.3 1002.6 0.0
25/06:00pm 32.4 34.0 18.3 43 9.3 WSW 7 11 4 6 1005.2 1002.5 0.0
25/05:30pm 33.1 34.7 18.3 41 9.8 WSW 7 15 4 8 1004.8 1002.1 0.0
25/05:00pm 33.3 34.2 17.6 39 10.3 SW 9 17 5 9 1005.0 1002.3 0.0
25/04:30pm 33.2 33.5 17.8 40 10.1 SW 13 19 7 10 1005.1 1002.4 0.0
25/04:00pm 33.1 32.9 17.7 40 10.1 W 15 24 8 13 1005.3 1002.6 0.0
25/03:30pm 33.4 34.0 17.7 39 10.3 SW 11 19 6 10 1005.3 1002.6 0.0
25/03:00pm 33.1 33.0 16.9 38 10.5 WSW 13 19 7 10 1005.6 1002.9 0.0
25/02:30pm 32.0 32.8 17.4 41 9.5 SW 9 15 5 8 1005.8 1003.1 0.0
25/02:00pm 31.8 33.1 17.5 42 9.3 W 7 15 4 8 1006.1 1003.3 0.0
25/01:30pm 31.9 33.2 19.3 47 8.4 W 11 19 6 10 1006.2 1003.4 0.0
25/01:00pm 30.6 31.9 19.2 50 7.6 W 11 20 6 11 1006.4 1003.6 0.0
25/12:30pm 30.5 31.2 19.6 52 7.3 W 15 20 8 11 1006.7 1004.0 0.0
25/12:00pm 30.2 30.8 19.4 52 7.2 W 15 24 8 13 1007.1 1004.4 0.0
25/11:30am 29.4 30.3 19.3 54 6.7 WNW 13 19 7 10 1007.5 1004.8 0.0
25/11:00am 29.5 31.2 20.9 60 5.8 WSW 13 22 7 12 1007.7 1005.0 0.0
25/10:30am 28.8 31.0 21.1 63 5.2 W 11 20 6 11 1008.0 1005.3 0.0
25/10:00am 27.9 30.2 20.6 64 4.9 WNW 9 19 5 10 1008.2 1005.5 0.0
25/09:30am 27.0 29.6 21.2 70 3.9 WNW 9 15 5 8 1008.2 1005.5 0.0
25/09:00am 26.0 28.9 21.1 74 3.3 WNW 7 13 4 7 1008.6 1005.9 0.0
25/08:30am 24.9 26.6 21.0 79 2.6 NW 13 24 7 13 1008.8 1006.1 0.0
25/08:00am 24.5 26.5 20.8 80 2.5 WNW 11 22 6 12 1009.0 1006.3 0.0
25/07:30am 24.1 26.9 20.5 80 2.4 WNW 6 11 3 6 1009.0 1006.3 0.0
25/07:00am 22.7 26.4 20.0 85 1.8 CALM 0 6 0 3 1008.7 1006.0 0.0
25/06:30am 21.4 25.1 19.9 91 1.0 CALM 0 0 0 0 1008.6 1005.9 0.0
25/06:00am 20.1 23.6 19.5 96 0.4 CALM 0 0 0 0 1008.4 1005.6 0.0
25/05:30am 19.8 23.1 19.2 96 0.4 CALM 0 0 0 0 1008.0 1005.3 0.0
25/05:00am 20.0 23.4 19.4 96 0.4 CALM 0 6 0 3 1007.8 1005.1 0.0
25/04:30am 20.5 23.9 19.4 93 0.7 CALM 0 0 0 0 1007.5 1004.8 0.0
25/04:00am 21.2 24.7 19.5 90 1.1 CALM 0 0 0 0 1007.3 1004.6 0.0
25/03:30am 21.3 25.1 20.2 93 0.7 CALM 0 0 0 0 1007.4 1004.7 0.0
25/03:00am 21.5 25.4 20.3 93 0.8 CALM 0 0 0 0 1007.5 1004.8 0.0
25/02:30am 20.9 24.6 20.0 95 0.6 CALM 0 0 0 0 1007.5 1004.8 0.0
25/02:00am 20.3 23.8 19.5 95 0.5 CALM 0 0 0 0 1007.5 1004.8 0.0
25/01:30am 20.3 23.6 19.2 93 0.7 CALM 0 0 0 0 1007.6 1004.9 0.0
25/01:00am 20.4 23.8 19.3 93 0.7 CALM 0 0 0 0 1007.6 1004.9 0.0
25/12:30am 21.5 25.1 19.7 89 1.2 CALM 0 0 0 0 1007.8 1005.1 0.0
25/12:00am 22.4 26.3 20.3 88 1.4 CALM 0 0 0 0 1008.0 1005.3 0.0
 
Date/Time
EST
Temp
°C
App
Temp
°C
Dew
Point
Rel
Hum
%
Delta-T
°C
Wind Press
QNH
hPa
Press
MSL
hPa
Rain
since 9 am
mm
Dir
 
Spd
km/h
Gust
km/h
Spd
kts
Gust
kts
24/11:30pm 22.8 26.6 20.2 85 1.7 CALM 0 0 0 0 1008.2 1005.5 0.0
24/11:00pm 23.0 27.0 20.6 86 1.6 CALM 0 0 0 0 1008.5 1005.7 0.0
24/10:30pm 23.1 26.5 20.1 83 2.0 N 2 7 1 4 1008.6 1005.9 0.0
24/10:00pm 23.1 27.2 20.8 87 1.5 CALM 0 0 0 0 1008.8 1006.1 0.0
24/09:30pm 23.3 27.2 20.4 84 1.9 CALM 0 6 0 3 1008.6 1005.9 0.0
24/09:00pm 23.4 27.2 20.2 82 2.1 CALM 0 0 0 0 1008.1 1005.4 0.0
24/08:30pm 23.3 24.5 20.0 82 2.2 N 13 20 7 11 1007.8 1005.1 0.0
24/08:00pm 23.1 24.2 20.4 85 1.8 NNW 15 20 8 11 1007.5 1004.8 0.0
24/07:30pm 23.4 23.9 20.1 82 2.2 NNW 17 22 9 12 1007.1 1004.4 0.0
24/07:00pm 24.2 26.2 20.0 77 2.8 NNW 9 17 5 9 1006.8 1004.1 0.0
24/06:30pm 26.1 28.9 18.9 64 4.7 E 2 7 1 4 1006.6 1003.8 0.0
24/06:00pm 26.9 29.0 19.3 63 5.0 SE 7 11 4 6 1006.3 1003.5 0.0
24/05:30pm 27.4 28.8 18.7 59 5.7 SSE 9 13 5 7 1006.1 1003.3 0.0
24/05:00pm 27.7 29.4 18.5 57 6.0 SE 7 11 4 6 1006.1 1003.3 0.0
24/04:30pm 27.7 29.2 18.0 55 6.3 SE 7 13 4 7 1005.9 1003.2 0.0
24/04:00pm 28.9 29.9 17.8 51 7.2 ESE 9 15 5 8 1006.1 1003.3 0.0

Other Formats:

Comma delimited format used in spreadsheet applications
http://www.bom.gov.au/fwo/IDQ60801/IDQ60801.94555.axf

JavaScript Object Notation format (JSON) in row-major order
http://www.bom.gov.au/fwo/IDQ60801/IDQ60801.94555.json